ZSSS/SHA METAR and TAF weather

Enter ICAO airport designator
Station Type Date Time Source
ZSSS METAR 2021/01/22 07:00 UTC NOAA

ZSSS 220700Z 05004MPS 6000 -RA BKN007 OVC026 10/09 Q1017 NOSIG


Station Type Date Time Source
ZSSS Decoded METAR 2021/01/22 07:00 UTC NOAA

Shanghai / Hongqiao, China (ZSSS) 31-10N 121-26E 3M
Jan 22, 2021 - 02:00 AM EST / 2021.01.22 0700 UTC
Wind: from the NE (050 degrees) at 9 MPH (8 KT):0
Visibility: 3 mile(s):0
Sky conditions: overcast
Weather: light rain
Temperature: 50 F (10 C)
Dew Point: 48 F (9 C)
Relative Humidity: 93%
Pressure (altimeter): 30.03 in. Hg (1017 hPa)
ob: ZSSS 220700Z 05004MPS 6000 -RA BKN007 OVC026 10/09 Q1017 NOSIG
cycle: 7

Station Type Date Time Source
ZSSS TAF 2021/01/22 06:03 UTC NOAA

TAF ZSSS 220320Z 2206/2306 01004MPS 6000 -RA BKN007 OVC026 TX12/2206Z TN06/2221Z
BECMG 2213/2214 2800 -RA BR
BECMG 2301/2302 5000 BKN010 OVC026

Example: see airport list